Terminal Aerodrome Forecast
Issued by NWS

Home | Current Version | Previous Version | Text Only | Print | Product List | Glossary On
Versions: 1 2 3 4 5 6 7 8 9 10 11 12 13 14 15
000
FTUS45 KRIW 251720
TAFRKS
TAF
KRKS 251720Z 2518/2618 25011KT P6SM SCT035 BKN180
     FM252100 25017G29KT P6SM SCT035 SCT150
     FM260100 24011KT P6SM SCT035 WS005/27030KT=

USA.gov is the U.S. government's official web portal to all federal, state and local government web resources and services.